sensor_id;sensor_type;location;lat;lon;timestamp;temperature;humidity
5639;DHT22;2841;44.526;11.360;2023-05-17T00:01:27;13.10;99.90
5639;DHT22;2841;44.526;11.360;2023-05-17T00:03:54;13.10;99.90
5639;DHT22;2841;44.526;11.360;2023-05-17T00:06:21;13.10;99.90
5639;DHT22;2841;44.526;11.360;2023-05-17T00:08:48;13.10;99.90
5639;DHT22;2841;44.526;11.360;2023-05-17T00:11:16;13.10;99.90
5639;DHT22;2841;44.526;11.360;2023-05-17T00:13:43;13.10;99.90
5639;DHT22;2841;44.526;11.360;2023-05-17T00:16:10;13.20;99.90
5639;DHT22;2841;44.526;11.360;2023-05-17T00:18:37;13.20;99.90
5639;DHT22;2841;44.526;11.360;2023-05-17T00:21:04;13.20;99.90
5639;DHT22;2841;44.526;11.360;2023-05-17T00:23:31;13.20;99.90
5639;DHT22;2841;44.526;11.360;2023-05-17T00:25:58;13.20;99.90
5639;DHT22;2841;44.526;11.360;2023-05-17T00:28:26;13.20;99.90
5639;DHT22;2841;44.526;11.360;2023-05-17T00:30:53;13.20;99.90
5639;DHT22;2841;44.526;11.360;2023-05-17T00:33:20;13.20;99.90
5639;DHT22;2841;44.526;11.360;2023-05-17T00:35:47;13.20;99.90
5639;DHT22;2841;44.526;11.360;2023-05-17T00:38:14;13.20;99.90
5639;DHT22;2841;44.526;11.360;2023-05-17T00:40:41;13.20;99.90
5639;DHT22;2841;44.526;11.360;2023-05-17T00:43:08;13.20;99.90
5639;DHT22;2841;44.526;11.360;2023-05-17T00:45:37;13.20;99.90
5639;DHT22;2841;44.526;11.360;2023-05-17T00:48:04;13.20;99.90
5639;DHT22;2841;44.526;11.360;2023-05-17T00:50:31;13.20;99.90
5639;DHT22;2841;44.526;11.360;2023-05-17T00:52:58;13.20;99.90
5639;DHT22;2841;44.526;11.360;2023-05-17T00:55:25;13.20;99.90
5639;DHT22;2841;44.526;11.360;2023-05-17T00:57:53;13.20;99.90
5639;DHT22;2841;44.526;11.360;2023-05-17T01:00:21;13.20;99.90
5639;DHT22;2841;44.526;11.360;2023-05-17T01:02:49;13.20;99.90
5639;DHT22;2841;44.526;11.360;2023-05-17T01:05:16;13.10;99.90
5639;DHT22;2841;44.526;11.360;2023-05-17T01:07:43;13.10;99.90
5639;DHT22;2841;44.526;11.360;2023-05-17T01:10:11;13.20;99.90
5639;DHT22;2841;44.526;11.360;2023-05-17T01:12:48;13.20;99.90
5639;DHT22;2841;44.526;11.360;2023-05-17T01:15:21;13.20;99.90
5639;DHT22;2841;44.526;11.360;2023-05-17T01:17:55;13.20;99.90
5639;DHT22;2841;44.526;11.360;2023-05-17T01:20:28;13.10;99.90
5639;DHT22;2841;44.526;11.360;2023-05-17T01:23:19;13.10;99.90
5639;DHT22;2841;44.526;11.360;2023-05-17T01:25:59;13.10;99.90
5639;DHT22;2841;44.526;11.360;2023-05-17T01:28:30;13.10;99.90
5639;DHT22;2841;44.526;11.360;2023-05-17T01:31:01;13.10;99.90
5639;DHT22;2841;44.526;11.360;2023-05-17T01:33:28;13.10;99.90
5639;DHT22;2841;44.526;11.360;2023-05-17T01:35:55;13.10;99.90
5639;DHT22;2841;44.526;11.360;2023-05-17T01:38:22;13.10;99.90
5639;DHT22;2841;44.526;11.360;2023-05-17T01:40:55;13.10;99.90
5639;DHT22;2841;44.526;11.360;2023-05-17T01:43:34;13.10;99.90
5639;DHT22;2841;44.526;11.360;2023-05-17T01:46:08;13.10;99.90
5639;DHT22;2841;44.526;11.360;2023-05-17T01:48:42;13.10;99.90
5639;DHT22;2841;44.526;11.360;2023-05-17T01:51:15;13.10;99.90
5639;DHT22;2841;44.526;11.360;2023-05-17T01:53:47;13.10;99.90
5639;DHT22;2841;44.526;11.360;2023-05-17T01:56:19;13.10;99.90
5639;DHT22;2841;44.526;11.360;2023-05-17T01:58:48;13.00;99.90
5639;DHT22;2841;44.526;11.360;2023-05-17T02:01:17;13.00;99.90
5639;DHT22;2841;44.526;11.360;2023-05-17T02:03:47;13.00;99.90
5639;DHT22;2841;44.526;11.360;2023-05-17T02:06:14;13.00;99.90
5639;DHT22;2841;44.526;11.360;2023-05-17T02:08:41;13.00;99.90
5639;DHT22;2841;44.526;11.360;2023-05-17T02:11:08;13.00;99.90
5639;DHT22;2841;44.526;11.360;2023-05-17T02:13:35;13.00;99.90
5639;DHT22;2841;44.526;11.360;2023-05-17T02:16:04;13.10;99.90
5639;DHT22;2841;44.526;11.360;2023-05-17T02:18:31;13.10;99.90
5639;DHT22;2841;44.526;11.360;2023-05-17T02:21:00;13.10;99.90
5639;DHT22;2841;44.526;11.360;2023-05-17T02:23:27;13.00;99.90
5639;DHT22;2841;44.526;11.360;2023-05-17T02:25:54;13.00;99.90
5639;DHT22;2841;44.526;11.360;2023-05-17T02:28:21;13.00;99.90
5639;DHT22;2841;44.526;11.360;2023-05-17T02:30:48;13.00;99.90
5639;DHT22;2841;44.526;11.360;2023-05-17T02:33:16;13.10;99.90
5639;DHT22;2841;44.526;11.360;2023-05-17T02:35:43;13.10;99.90
5639;DHT22;2841;44.526;11.360;2023-05-17T02:38:10;13.10;99.90
5639;DHT22;2841;44.526;11.360;2023-05-17T02:40:40;13.10;99.90
5639;DHT22;2841;44.526;11.360;2023-05-17T02:43:07;13.10;99.90
5639;DHT22;2841;44.526;11.360;2023-05-17T02:45:34;13.00;99.90
5639;DHT22;2841;44.526;11.360;2023-05-17T02:48:01;13.10;99.90
5639;DHT22;2841;44.526;11.360;2023-05-17T02:50:30;13.10;99.90
5639;DHT22;2841;44.526;11.360;2023-05-17T02:52:57;13.10;99.90
5639;DHT22;2841;44.526;11.360;2023-05-17T02:55:24;13.00;99.90
5639;DHT22;2841;44.526;11.360;2023-05-17T02:57:51;13.10;99.90
5639;DHT22;2841;44.526;11.360;2023-05-17T03:00:18;13.10;99.90
5639;DHT22;2841;44.526;11.360;2023-05-17T03:02:46;13.10;99.90
5639;DHT22;2841;44.526;11.360;2023-05-17T03:05:13;13.10;99.90
5639;DHT22;2841;44.526;11.360;2023-05-17T03:07:41;13.10;99.90
5639;DHT22;2841;44.526;11.360;2023-05-17T03:10:09;13.10;99.90
5639;DHT22;2841;44.526;11.360;2023-05-17T03:12:36;13.10;99.90
5639;DHT22;2841;44.526;11.360;2023-05-17T03:15:04;13.10;99.90
5639;DHT22;2841;44.526;11.360;2023-05-17T03:17:32;13.10;99.90
5639;DHT22;2841;44.526;11.360;2023-05-17T03:19:59;13.10;99.90
5639;DHT22;2841;44.526;11.360;2023-05-17T03:22:25;13.10;99.90
5639;DHT22;2841;44.526;11.360;2023-05-17T03:24:54;13.10;99.90
5639;DHT22;2841;44.526;11.360;2023-05-17T03:27:21;13.10;99.90
5639;DHT22;2841;44.526;11.360;2023-05-17T03:29:48;13.10;99.90
5639;DHT22;2841;44.526;11.360;2023-05-17T03:32:15;13.10;99.90
5639;DHT22;2841;44.526;11.360;2023-05-17T03:34:42;13.10;99.90
5639;DHT22;2841;44.526;11.360;2023-05-17T03:37:09;13.10;99.90
5639;DHT22;2841;44.526;11.360;2023-05-17T03:39:36;13.10;99.90
5639;DHT22;2841;44.526;11.360;2023-05-17T03:42:05;13.10;99.90
5639;DHT22;2841;44.526;11.360;2023-05-17T03:44:32;13.10;99.90
5639;DHT22;2841;44.526;11.360;2023-05-17T03:46:59;13.10;99.90
5639;DHT22;2841;44.526;11.360;2023-05-17T03:49:26;13.10;99.90
5639;DHT22;2841;44.526;11.360;2023-05-17T03:51:53;13.10;99.90
5639;DHT22;2841;44.526;11.360;2023-05-17T03:54:20;13.10;99.90
5639;DHT22;2841;44.526;11.360;2023-05-17T03:56:47;13.10;99.90
5639;DHT22;2841;44.526;11.360;2023-05-17T03:59:16;13.10;99.90
5639;DHT22;2841;44.526;11.360;2023-05-17T04:01:43;13.10;99.90
5639;DHT22;2841;44.526;11.360;2023-05-17T04:04:10;13.10;99.90
5639;DHT22;2841;44.526;11.360;2023-05-17T04:06:37;13.10;99.90
5639;DHT22;2841;44.526;11.360;2023-05-17T04:09:05;13.10;99.90
5639;DHT22;2841;44.526;11.360;2023-05-17T04:11:33;13.10;99.90
5639;DHT22;2841;44.526;11.360;2023-05-17T04:14:00;13.10;99.90
5639;DHT22;2841;44.526;11.360;2023-05-17T04:16:28;13.10;99.90
5639;DHT22;2841;44.526;11.360;2023-05-17T04:18:55;13.10;99.90
5639;DHT22;2841;44.526;11.360;2023-05-17T04:21:22;13.10;99.90
5639;DHT22;2841;44.526;11.360;2023-05-17T04:23:51;13.10;99.90
5639;DHT22;2841;44.526;11.360;2023-05-17T04:26:21;13.10;99.90
5639;DHT22;2841;44.526;11.360;2023-05-17T04:28:48;13.10;99.90
5639;DHT22;2841;44.526;11.360;2023-05-17T04:31:15;13.00;99.90
5639;DHT22;2841;44.526;11.360;2023-05-17T04:33:44;13.00;99.90
5639;DHT22;2841;44.526;11.360;2023-05-17T04:36:11;13.00;99.90
5639;DHT22;2841;44.526;11.360;2023-05-17T04:38:38;13.00;99.90
5639;DHT22;2841;44.526;11.360;2023-05-17T04:41:05;13.00;99.90
5639;DHT22;2841;44.526;11.360;2023-05-17T04:43:34;13.00;99.90
5639;DHT22;2841;44.526;11.360;2023-05-17T04:46:01;13.00;99.90
5639;DHT22;2841;44.526;11.360;2023-05-17T04:48:30;13.00;99.90
5639;DHT22;2841;44.526;11.360;2023-05-17T04:51:01;13.00;99.90
5639;DHT22;2841;44.526;11.360;2023-05-17T04:53:28;12.90;99.90
5639;DHT22;2841;44.526;11.360;2023-05-17T04:55:56;13.00;99.90
5639;DHT22;2841;44.526;11.360;2023-05-17T04:58:23;12.90;99.90
5639;DHT22;2841;44.526;11.360;2023-05-17T05:00:50;13.00;99.90
5639;DHT22;2841;44.526;11.360;2023-05-17T05:03:18;13.00;99.90
5639;DHT22;2841;44.526;11.360;2023-05-17T05:05:45;12.90;99.90
5639;DHT22;2841;44.526;11.360;2023-05-17T05:08:14;12.90;99.90
5639;DHT22;2841;44.526;11.360;2023-05-17T05:10:41;12.90;99.90
5639;DHT22;2841;44.526;11.360;2023-05-17T05:13:08;12.90;99.90
5639;DHT22;2841;44.526;11.360;2023-05-17T05:15:35;12.90;99.90
5639;DHT22;2841;44.526;11.360;2023-05-17T05:18:03;12.90;99.90
5639;DHT22;2841;44.526;11.360;2023-05-17T05:20:30;13.00;99.90
5639;DHT22;2841;44.526;11.360;2023-05-17T05:22:57;12.90;99.90
5639;DHT22;2841;44.526;11.360;2023-05-17T05:25:26;12.90;99.90
5639;DHT22;2841;44.526;11.360;2023-05-17T05:27:54;13.00;99.90
5639;DHT22;2841;44.526;11.360;2023-05-17T05:30:21;13.00;99.90
5639;DHT22;2841;44.526;11.360;2023-05-17T05:32:48;13.00;99.90
5639;DHT22;2841;44.526;11.360;2023-05-17T05:35:16;12.90;99.90
5639;DHT22;2841;44.526;11.360;2023-05-17T05:37:43;13.00;99.90
5639;DHT22;2841;44.526;11.360;2023-05-17T05:40:11;13.00;99.90
5639;DHT22;2841;44.526;11.360;2023-05-17T05:42:40;13.00;99.90
5639;DHT22;2841;44.526;11.360;2023-05-17T05:45:08;13.00;99.90
5639;DHT22;2841;44.526;11.360;2023-05-17T05:47:35;13.00;99.90
5639;DHT22;2841;44.526;11.360;2023-05-17T05:50:03;13.10;99.90
5639;DHT22;2841;44.526;11.360;2023-05-17T05:52:31;13.10;99.90
5639;DHT22;2841;44.526;11.360;2023-05-17T05:54:57;13.10;99.90
5639;DHT22;2841;44.526;11.360;2023-05-17T05:57:24;13.10;99.90
5639;DHT22;2841;44.526;11.360;2023-05-17T05:59:53;13.10;99.90
5639;DHT22;2841;44.526;11.360;2023-05-17T06:02:20;13.10;99.90
5639;DHT22;2841;44.526;11.360;2023-05-17T06:04:47;13.20;99.90
5639;DHT22;2841;44.526;11.360;2023-05-17T06:07:14;13.20;99.90
5639;DHT22;2841;44.526;11.360;2023-05-17T06:09:42;13.30;99.90
5639;DHT22;2841;44.526;11.360;2023-05-17T06:12:09;13.30;99.90
5639;DHT22;2841;44.526;11.360;2023-05-17T06:14:36;13.30;99.90
5639;DHT22;2841;44.526;11.360;2023-05-17T06:17:04;13.30;99.90
5639;DHT22;2841;44.526;11.360;2023-05-17T06:19:31;13.40;99.90
5639;DHT22;2841;44.526;11.360;2023-05-17T06:21:58;13.30;99.90
5639;DHT22;2841;44.526;11.360;2023-05-17T06:24:27;13.30;99.90
5639;DHT22;2841;44.526;11.360;2023-05-17T06:26:57;13.30;99.90
5639;DHT22;2841;44.526;11.360;2023-05-17T06:29:31;13.20;99.90
5639;DHT22;2841;44.526;11.360;2023-05-17T06:32:01;13.20;99.90
5639;DHT22;2841;44.526;11.360;2023-05-17T06:34:33;13.30;99.90
5639;DHT22;2841;44.526;11.360;2023-05-17T06:37:06;13.30;99.90
5639;DHT22;2841;44.526;11.360;2023-05-17T06:39:36;13.30;99.90
5639;DHT22;2841;44.526;11.360;2023-05-17T06:42:06;13.40;99.90
5639;DHT22;2841;44.526;11.360;2023-05-17T06:44:37;13.40;99.90
5639;DHT22;2841;44.526;11.360;2023-05-17T06:47:08;13.40;99.90
5639;DHT22;2841;44.526;11.360;2023-05-17T06:49:42;13.40;99.90
5639;DHT22;2841;44.526;11.360;2023-05-17T06:52:13;13.40;99.90
5639;DHT22;2841;44.526;11.360;2023-05-17T06:54:42;13.40;99.90
5639;DHT22;2841;44.526;11.360;2023-05-17T06:57:11;13.50;99.90
5639;DHT22;2841;44.526;11.360;2023-05-17T06:59:39;13.50;99.90
5639;DHT22;2841;44.526;11.360;2023-05-17T07:02:06;13.50;99.90
5639;DHT22;2841;44.526;11.360;2023-05-17T07:04:32;13.50;99.90
5639;DHT22;2841;44.526;11.360;2023-05-17T07:07:01;13.60;99.90
5639;DHT22;2841;44.526;11.360;2023-05-17T07:09:28;13.60;99.90
5639;DHT22;2841;44.526;11.360;2023-05-17T07:11:55;13.70;99.90
5639;DHT22;2841;44.526;11.360;2023-05-17T07:14:21;13.70;99.90
5639;DHT22;2841;44.526;11.360;2023-05-17T07:16:48;13.70;99.90
5639;DHT22;2841;44.526;11.360;2023-05-17T07:19:15;13.70;99.90
5639;DHT22;2841;44.526;11.360;2023-05-17T07:21:42;13.70;99.90
5639;DHT22;2841;44.526;11.360;2023-05-17T07:24:10;13.80;99.90
5639;DHT22;2841;44.526;11.360;2023-05-17T07:26:37;13.70;99.90
5639;DHT22;2841;44.526;11.360;2023-05-17T07:29:04;13.80;99.90
5639;DHT22;2841;44.526;11.360;2023-05-17T07:31:32;13.80;99.90
5639;DHT22;2841;44.526;11.360;2023-05-17T07:33:58;13.80;99.90
5639;DHT22;2841;44.526;11.360;2023-05-17T07:36:25;13.80;99.90
5639;DHT22;2841;44.526;11.360;2023-05-17T07:38:55;13.80;99.90
5639;DHT22;2841;44.526;11.360;2023-05-17T07:41:23;13.80;99.90
5639;DHT22;2841;44.526;11.360;2023-05-17T07:43:51;13.80;99.90
5639;DHT22;2841;44.526;11.360;2023-05-17T07:46:18;13.80;99.90
5639;DHT22;2841;44.526;11.360;2023-05-17T07:48:46;13.90;99.90
5639;DHT22;2841;44.526;11.360;2023-05-17T07:51:13;13.90;99.90
5639;DHT22;2841;44.526;11.360;2023-05-17T07:53:40;13.90;99.90
5639;DHT22;2841;44.526;11.360;2023-05-17T07:56:07;13.90;99.90
5639;DHT22;2841;44.526;11.360;2023-05-17T07:58:36;14.00;99.90
5639;DHT22;2841;44.526;11.360;2023-05-17T08:01:03;14.00;99.90
5639;DHT22;2841;44.526;11.360;2023-05-17T08:03:30;14.00;99.90
5639;DHT22;2841;44.526;11.360;2023-05-17T08:05:57;14.00;99.90
5639;DHT22;2841;44.526;11.360;2023-05-17T08:08:24;14.00;99.90
5639;DHT22;2841;44.526;11.360;2023-05-17T08:10:51;14.00;99.90
5639;DHT22;2841;44.526;11.360;2023-05-17T08:13:18;14.00;99.90
5639;DHT22;2841;44.526;11.360;2023-05-17T08:15:47;14.00;99.90
5639;DHT22;2841;44.526;11.360;2023-05-17T08:18:14;14.00;99.90
5639;DHT22;2841;44.526;11.360;2023-05-17T08:20:41;14.10;99.90
5639;DHT22;2841;44.526;11.360;2023-05-17T08:23:08;14.10;99.90
5639;DHT22;2841;44.526;11.360;2023-05-17T08:25:35;14.10;99.90
5639;DHT22;2841;44.526;11.360;2023-05-17T08:28:02;14.10;99.90
5639;DHT22;2841;44.526;11.360;2023-05-17T08:30:29;14.10;99.90
5639;DHT22;2841;44.526;11.360;2023-05-17T08:32:58;14.20;99.90
5639;DHT22;2841;44.526;11.360;2023-05-17T08:35:26;14.10;99.90
5639;DHT22;2841;44.526;11.360;2023-05-17T08:37:53;14.20;99.90
5639;DHT22;2841;44.526;11.360;2023-05-17T08:40:21;14.20;99.90
5639;DHT22;2841;44.526;11.360;2023-05-17T08:42:48;14.30;99.90
5639;DHT22;2841;44.526;11.360;2023-05-17T08:45:17;14.30;99.90
5639;DHT22;2841;44.526;11.360;2023-05-17T08:47:44;14.40;99.90
5639;DHT22;2841;44.526;11.360;2023-05-17T08:50:13;14.40;99.90
5639;DHT22;2841;44.526;11.360;2023-05-17T08:52:45;14.50;99.90
5639;DHT22;2841;44.526;11.360;2023-05-17T08:55:12;14.50;99.90
5639;DHT22;2841;44.526;11.360;2023-05-17T08:57:41;14.60;99.90
5639;DHT22;2841;44.526;11.360;2023-05-17T09:00:12;14.60;99.90
5639;DHT22;2841;44.526;11.360;2023-05-17T09:02:41;14.70;99.90
5639;DHT22;2841;44.526;11.360;2023-05-17T09:05:09;14.70;99.90
5639;DHT22;2841;44.526;11.360;2023-05-17T09:07:39;14.70;99.90
5639;DHT22;2841;44.526;11.360;2023-05-17T09:10:08;14.70;99.90
5639;DHT22;2841;44.526;11.360;2023-05-17T09:12:35;14.70;99.90
5639;DHT22;2841;44.526;11.360;2023-05-17T09:15:14;14.70;99.90
5639;DHT22;2841;44.526;11.360;2023-05-17T09:17:41;14.80;99.90
5639;DHT22;2841;44.526;11.360;2023-05-17T09:20:09;14.70;99.90
5639;DHT22;2841;44.526;11.360;2023-05-17T09:22:36;14.70;99.90
5639;DHT22;2841;44.526;11.360;2023-05-17T09:25:06;14.70;99.90
5639;DHT22;2841;44.526;11.360;2023-05-17T09:27:36;14.70;99.90
5639;DHT22;2841;44.526;11.360;2023-05-17T09:30:09;14.70;99.90
5639;DHT22;2841;44.526;11.360;2023-05-17T09:32:42;14.70;99.90
5639;DHT22;2841;44.526;11.360;2023-05-17T09:35:10;14.70;99.90
5639;DHT22;2841;44.526;11.360;2023-05-17T09:37:38;14.70;99.90
5639;DHT22;2841;44.526;11.360;2023-05-17T09:40:07;14.80;99.90
5639;DHT22;2841;44.526;11.360;2023-05-17T09:42:35;14.70;99.90
5639;DHT22;2841;44.526;11.360;2023-05-17T09:45:04;14.70;99.90
5639;DHT22;2841;44.526;11.360;2023-05-17T09:47:31;14.70;99.90
5639;DHT22;2841;44.526;11.360;2023-05-17T09:50:00;14.70;99.90
5639;DHT22;2841;44.526;11.360;2023-05-17T09:52:29;14.70;99.90
5639;DHT22;2841;44.526;11.360;2023-05-17T09:54:58;14.70;99.90
5639;DHT22;2841;44.526;11.360;2023-05-17T09:57:34;14.70;99.90
5639;DHT22;2841;44.526;11.360;2023-05-17T10:00:04;14.70;99.90
5639;DHT22;2841;44.526;11.360;2023-05-17T10:02:35;14.70;99.90
5639;DHT22;2841;44.526;11.360;2023-05-17T10:05:04;14.70;99.90
5639;DHT22;2841;44.526;11.360;2023-05-17T10:07:31;14.80;99.90
5639;DHT22;2841;44.526;11.360;2023-05-17T10:10:00;14.80;99.90
5639;DHT22;2841;44.526;11.360;2023-05-17T10:12:32;14.80;99.90
5639;DHT22;2841;44.526;11.360;2023-05-17T10:15:01;14.80;99.90
5639;DHT22;2841;44.526;11.360;2023-05-17T10:17:29;14.80;99.90
5639;DHT22;2841;44.526;11.360;2023-05-17T10:19:57;14.80;99.90
5639;DHT22;2841;44.526;11.360;2023-05-17T10:22:25;14.70;99.90
5639;DHT22;2841;44.526;11.360;2023-05-17T10:24:55;14.70;99.90
5639;DHT22;2841;44.526;11.360;2023-05-17T10:27:23;14.80;99.90
5639;DHT22;2841;44.526;11.360;2023-05-17T10:29:52;14.70;99.90
5639;DHT22;2841;44.526;11.360;2023-05-17T10:32:20;14.80;99.90
5639;DHT22;2841;44.526;11.360;2023-05-17T10:34:52;14.80;99.90
5639;DHT22;2841;44.526;11.360;2023-05-17T10:37:20;14.80;99.90
5639;DHT22;2841;44.526;11.360;2023-05-17T10:39:48;14.90;99.90
5639;DHT22;2841;44.526;11.360;2023-05-17T10:42:17;14.90;99.90
5639;DHT22;2841;44.526;11.360;2023-05-17T10:44:44;15.00;99.90
5639;DHT22;2841;44.526;11.360;2023-05-17T10:47:13;15.00;99.90
5639;DHT22;2841;44.526;11.360;2023-05-17T10:49:43;15.10;99.90
5639;DHT22;2841;44.526;11.360;2023-05-17T10:52:13;15.10;99.90
5639;DHT22;2841;44.526;11.360;2023-05-17T10:54:42;15.10;99.90
5639;DHT22;2841;44.526;11.360;2023-05-17T10:57:18;15.20;99.90
5639;DHT22;2841;44.526;11.360;2023-05-17T10:59:56;15.20;99.90
5639;DHT22;2841;44.526;11.360;2023-05-17T11:02:26;15.30;99.90
5639;DHT22;2841;44.526;11.360;2023-05-17T11:04:53;15.40;99.90
5639;DHT22;2841;44.526;11.360;2023-05-17T11:07:24;15.40;99.90
5639;DHT22;2841;44.526;11.360;2023-05-17T11:09:54;15.50;99.90
5639;DHT22;2841;44.526;11.360;2023-05-17T11:12:30;15.50;99.90
5639;DHT22;2841;44.526;11.360;2023-05-17T11:14:58;15.50;99.90
5639;DHT22;2841;44.526;11.360;2023-05-17T11:17:33;15.50;99.90
5639;DHT22;2841;44.526;11.360;2023-05-17T11:20:05;15.50;99.90
5639;DHT22;2841;44.526;11.360;2023-05-17T11:22:36;15.40;99.90
5639;DHT22;2841;44.526;11.360;2023-05-17T11:25:08;15.40;99.90
5639;DHT22;2841;44.526;11.360;2023-05-17T11:27:37;15.40;99.90
5639;DHT22;2841;44.526;11.360;2023-05-17T11:30:15;15.40;99.90
5639;DHT22;2841;44.526;11.360;2023-05-17T11:32:49;15.40;99.90
5639;DHT22;2841;44.526;11.360;2023-05-17T11:35:17;15.40;99.90
5639;DHT22;2841;44.526;11.360;2023-05-17T11:37:45;15.40;99.90
5639;DHT22;2841;44.526;11.360;2023-05-17T11:40:12;15.50;99.90
5639;DHT22;2841;44.526;11.360;2023-05-17T11:42:40;15.50;99.90
5639;DHT22;2841;44.526;11.360;2023-05-17T11:45:08;15.50;99.90
5639;DHT22;2841;44.526;11.360;2023-05-17T11:47:38;15.50;99.90
5639;DHT22;2841;44.526;11.360;2023-05-17T11:50:10;15.60;99.90
5639;DHT22;2841;44.526;11.360;2023-05-17T11:52:39;15.60;99.90
5639;DHT22;2841;44.526;11.360;2023-05-17T11:55:07;15.60;99.90
5639;DHT22;2841;44.526;11.360;2023-05-17T11:57:36;15.70;99.90
5639;DHT22;2841;44.526;11.360;2023-05-17T12:00:05;15.60;99.90
5639;DHT22;2841;44.526;11.360;2023-05-17T12:02:32;15.70;99.90
5639;DHT22;2841;44.526;11.360;2023-05-17T12:04:59;15.70;99.90
5639;DHT22;2841;44.526;11.360;2023-05-17T12:07:28;15.70;99.90
5639;DHT22;2841;44.526;11.360;2023-05-17T12:09:55;15.70;99.90
5639;DHT22;2841;44.526;11.360;2023-05-17T12:12:22;15.70;99.90
5639;DHT22;2841;44.526;11.360;2023-05-17T12:14:49;15.70;99.90
5639;DHT22;2841;44.526;11.360;2023-05-17T12:17:23;15.70;99.90
5639;DHT22;2841;44.526;11.360;2023-05-17T12:19:54;15.70;99.90
5639;DHT22;2841;44.526;11.360;2023-05-17T12:22:21;15.70;99.90
5639;DHT22;2841;44.526;11.360;2023-05-17T12:24:49;15.60;99.90
5639;DHT22;2841;44.526;11.360;2023-05-17T12:27:24;15.70;99.90
5639;DHT22;2841;44.526;11.360;2023-05-17T12:29:52;15.70;99.90
5639;DHT22;2841;44.526;11.360;2023-05-17T12:32:19;15.80;99.90
5639;DHT22;2841;44.526;11.360;2023-05-17T12:34:47;15.90;99.90
5639;DHT22;2841;44.526;11.360;2023-05-17T12:37:15;15.80;99.90
5639;DHT22;2841;44.526;11.360;2023-05-17T12:39:42;15.80;99.90
5639;DHT22;2841;44.526;11.360;2023-05-17T12:42:11;15.80;99.90
5639;DHT22;2841;44.526;11.360;2023-05-17T12:44:38;15.70;99.90
5639;DHT22;2841;44.526;11.360;2023-05-17T12:47:06;15.70;99.90
5639;DHT22;2841;44.526;11.360;2023-05-17T12:49:50;15.80;99.90
5639;DHT22;2841;44.526;11.360;2023-05-17T12:52:17;15.70;99.90
5639;DHT22;2841;44.526;11.360;2023-05-17T12:54:45;15.70;99.90
5639;DHT22;2841;44.526;11.360;2023-05-17T12:57:13;15.60;99.90
5639;DHT22;2841;44.526;11.360;2023-05-17T12:59:48;15.60;99.90
5639;DHT22;2841;44.526;11.360;2023-05-17T13:02:15;15.50;99.90
5639;DHT22;2841;44.526;11.360;2023-05-17T13:04:43;15.50;99.90
5639;DHT22;2841;44.526;11.360;2023-05-17T13:07:11;15.50;99.90
5639;DHT22;2841;44.526;11.360;2023-05-17T13:09:45;15.50;99.90
5639;DHT22;2841;44.526;11.360;2023-05-17T13:12:18;15.60;99.90
5639;DHT22;2841;44.526;11.360;2023-05-17T13:14:47;15.70;99.90
5639;DHT22;2841;44.526;11.360;2023-05-17T13:17:17;15.70;99.90
5639;DHT22;2841;44.526;11.360;2023-05-17T13:19:46;15.80;99.90
5639;DHT22;2841;44.526;11.360;2023-05-17T13:22:13;15.90;99.90
5639;DHT22;2841;44.526;11.360;2023-05-17T13:24:42;15.90;99.90
5639;DHT22;2841;44.526;11.360;2023-05-17T13:27:10;16.00;99.90
5639;DHT22;2841;44.526;11.360;2023-05-17T13:29:40;16.00;99.90
5639;DHT22;2841;44.526;11.360;2023-05-17T13:32:08;16.10;99.90
5639;DHT22;2841;44.526;11.360;2023-05-17T13:34:36;16.10;99.90
5639;DHT22;2841;44.526;11.360;2023-05-17T13:37:04;16.20;99.90
5639;DHT22;2841;44.526;11.360;2023-05-17T13:39:31;16.20;99.90
5639;DHT22;2841;44.526;11.360;2023-05-17T13:41:58;16.30;99.90
5639;DHT22;2841;44.526;11.360;2023-05-17T13:44:25;16.30;99.90
5639;DHT22;2841;44.526;11.360;2023-05-17T13:46:54;16.40;99.90
5639;DHT22;2841;44.526;11.360;2023-05-17T13:49:21;16.50;99.90
5639;DHT22;2841;44.526;11.360;2023-05-17T13:51:48;16.60;99.90
5639;DHT22;2841;44.526;11.360;2023-05-17T13:54:15;16.70;99.90
5639;DHT22;2841;44.526;11.360;2023-05-17T13:56:44;16.80;99.90
5639;DHT22;2841;44.526;11.360;2023-05-17T13:59:11;16.80;99.90
5639;DHT22;2841;44.526;11.360;2023-05-17T14:01:39;16.90;99.90
5639;DHT22;2841;44.526;11.360;2023-05-17T14:04:07;17.00;99.90
5639;DHT22;2841;44.526;11.360;2023-05-17T14:06:34;17.10;99.90
5639;DHT22;2841;44.526;11.360;2023-05-17T14:09:01;17.20;99.90
5639;DHT22;2841;44.526;11.360;2023-05-17T14:11:29;17.30;99.90
5639;DHT22;2841;44.526;11.360;2023-05-17T14:13:56;17.30;99.90
5639;DHT22;2841;44.526;11.360;2023-05-17T14:16:23;17.30;99.90
5639;DHT22;2841;44.526;11.360;2023-05-17T14:18:50;17.20;99.90
5639;DHT22;2841;44.526;11.360;2023-05-17T14:21:20;17.20;99.90
5639;DHT22;2841;44.526;11.360;2023-05-17T14:23:47;17.10;99.90
5639;DHT22;2841;44.526;11.360;2023-05-17T14:26:14;17.10;99.90
5639;DHT22;2841;44.526;11.360;2023-05-17T14:28:42;17.10;99.90
5639;DHT22;2841;44.526;11.360;2023-05-17T14:31:09;17.10;99.90
5639;DHT22;2841;44.526;11.360;2023-05-17T14:33:36;17.00;99.90
5639;DHT22;2841;44.526;11.360;2023-05-17T14:36:04;17.00;99.90
5639;DHT22;2841;44.526;11.360;2023-05-17T14:38:33;16.80;99.90
5639;DHT22;2841;44.526;11.360;2023-05-17T14:41:00;16.80;99.90
5639;DHT22;2841;44.526;11.360;2023-05-17T14:43:28;16.70;99.90
5639;DHT22;2841;44.526;11.360;2023-05-17T14:45:55;16.70;99.90
5639;DHT22;2841;44.526;11.360;2023-05-17T14:48:23;16.70;99.90
5639;DHT22;2841;44.526;11.360;2023-05-17T14:50:50;16.70;99.90
5639;DHT22;2841;44.526;11.360;2023-05-17T14:53:18;16.70;99.90
5639;DHT22;2841;44.526;11.360;2023-05-17T14:55:46;16.80;99.90
5639;DHT22;2841;44.526;11.360;2023-05-17T14:58:14;16.90;99.90
5639;DHT22;2841;44.526;11.360;2023-05-17T15:00:41;16.90;99.90
5639;DHT22;2841;44.526;11.360;2023-05-17T15:03:11;16.90;99.90
5639;DHT22;2841;44.526;11.360;2023-05-17T15:05:39;16.90;99.90
5639;DHT22;2841;44.526;11.360;2023-05-17T15:08:06;16.90;99.90
5639;DHT22;2841;44.526;11.360;2023-05-17T15:10:33;16.80;99.90
5639;DHT22;2841;44.526;11.360;2023-05-17T15:13:02;16.80;99.90
5639;DHT22;2841;44.526;11.360;2023-05-17T15:15:31;16.80;99.90
5639;DHT22;2841;44.526;11.360;2023-05-17T15:17:58;16.90;99.90
5639;DHT22;2841;44.526;11.360;2023-05-17T15:20:26;16.90;99.90
5639;DHT22;2841;44.526;11.360;2023-05-17T15:22:53;16.90;99.90
5639;DHT22;2841;44.526;11.360;2023-05-17T15:25:21;16.80;99.90
5639;DHT22;2841;44.526;11.360;2023-05-17T15:27:48;16.90;99.90
5639;DHT22;2841;44.526;11.360;2023-05-17T15:30:17;16.90;99.90
5639;DHT22;2841;44.526;11.360;2023-05-17T15:32:44;17.10;99.90
5639;DHT22;2841;44.526;11.360;2023-05-17T15:35:12;17.20;99.90
5639;DHT22;2841;44.526;11.360;2023-05-17T15:37:39;17.40;99.90
5639;DHT22;2841;44.526;11.360;2023-05-17T15:40:08;17.60;99.90
5639;DHT22;2841;44.526;11.360;2023-05-17T15:42:35;17.80;99.90
5639;DHT22;2841;44.526;11.360;2023-05-17T15:45:02;17.90;99.90
5639;DHT22;2841;44.526;11.360;2023-05-17T15:47:31;18.10;99.90
5639;DHT22;2841;44.526;11.360;2023-05-17T15:49:58;18.20;99.90
5639;DHT22;2841;44.526;11.360;2023-05-17T15:52:25;18.30;99.90